Time;durP1;ratioP1;P1;durP2;ratioP2;P2;SDS_P1;SDS_P2;PMS_P1;PMS_P2;Temp;Humidity;BMP_temperature;BMP_pressure;BME280_temperature;BME280_humidity;BME280_pressure;Samples;Min_cycle;Max_cycle;Signal;HPM_P1;HPM_P2
2024/04/16 00:00:11;;;;;;;1.87;1.30;;;7.10;98.00;;;;;;5344167;26;20561;-63
2024/04/16 00:02:40;;;;;;;1.90;1.37;;;7.00;98.00;;;;;;5344361;26;20570;-65
2024/04/16 00:05:06;;;;;;;1.50;1.30;;;7.00;98.00;;;;;;5344450;26;20467;-63
2024/04/16 00:07:37;;;;;;;1.40;1.20;;;7.00;98.00;;;;;;5344256;26;21047;-63
2024/04/16 00:10:03;;;;;;;3.10;1.20;;;6.90;98.00;;;;;;5314313;26;20574;-65
2024/04/16 00:12:33;;;;;;;1.60;1.20;;;6.80;98.00;;;;;;5343807;26;20993;-63
2024/04/16 00:15:00;;;;;;;2.23;1.20;;;6.80;98.00;;;;;;5344119;26;21132;-64
2024/04/16 00:17:33;;;;;;;6.60;1.20;;;6.80;98.00;;;;;;5343721;26;20974;-64
2024/04/16 00:19:59;;;;;;;2.80;1.43;;;6.70;98.00;;;;;;5343857;26;20467;-63
2024/04/16 00:22:29;;;;;;;1.40;1.30;;;6.70;98.00;;;;;;5343841;26;20467;-63
2024/04/16 00:24:56;;;;;;;1.90;1.37;;;6.60;98.00;;;;;;5314701;26;20609;-64
2024/04/16 00:27:24;;;;;;;2.00;1.70;;;6.70;98.00;;;;;;5313635;26;20523;-65
2024/04/16 00:29:50;;;;;;;1.30;1.20;;;6.70;98.00;;;;;;5344068;26;20989;-63
2024/04/16 00:32:19;;;;;;;1.63;1.17;;;6.70;98.00;;;;;;5342594;26;20514;-64
2024/04/16 00:34:48;;;;;;;1.80;1.30;;;6.60;98.00;;;;;;5343080;26;20476;-65
2024/04/16 00:37:17;;;;;;;1.77;1.20;;;6.70;98.00;;;;;;5313202;26;20518;-64
2024/04/16 00:39:43;;;;;;;5.40;1.30;;;6.80;98.00;;;;;;5344047;26;20840;-63
2024/04/16 00:42:12;;;;;;;3.37;1.30;;;6.60;98.00;;;;;;5343607;26;20610;-63
2024/04/16 00:44:39;;;;;;;1.30;1.20;;;6.60;98.00;;;;;;5343754;26;20997;-63
2024/04/16 00:47:11;;;;;;;3.00;1.40;;;6.40;98.00;;;;;;5343559;26;20501;-63
2024/04/16 00:49:37;;;;;;;2.20;1.40;;;6.40;98.00;;;;;;5343471;26;20466;-64
2024/04/16 00:52:09;;;;;;;2.00;1.20;;;6.50;98.00;;;;;;5343551;26;20473;-63
2024/04/16 00:54:36;;;;;;;2.17;1.40;;;6.50;98.00;;;;;;5343390;26;20575;-63
2024/04/16 00:57:05;;;;;;;3.57;1.67;;;6.50;98.00;;;;;;5313139;26;20529;-64
2024/04/16 00:59:34;;;;;;;2.37;1.57;;;6.60;98.00;;;;;;5343350;26;20470;-63
2024/04/16 01:02:03;;;;;;;2.80;1.43;;;6.60;98.00;;;;;;5343252;26;20476;-64
2024/04/16 01:04:29;;;;;;;1.70;1.30;;;6.60;98.00;;;;;;5343359;26;20522;-63
2024/04/16 01:06:58;;;;;;;2.87;1.50;;;6.60;98.00;;;;;;5343291;26;20573;-63
2024/04/16 01:09:28;;;;;;;3.43;1.60;;;6.60;98.00;;;;;;5313633;26;20801;-65
2024/04/16 01:12:00;;;;;;;2.17;1.40;;;6.60;98.00;;;;;;5342868;26;20463;-64
2024/04/16 01:14:26;;;;;;;1.83;1.27;;;6.60;98.00;;;;;;5343002;26;20531;-64
2024/04/16 01:16:54;;;;;;;2.30;1.23;;;6.60;98.00;;;;;;5342815;26;20809;-64
2024/04/16 01:19:20;;;;;;;1.67;1.30;;;6.60;98.00;;;;;;5342643;26;20471;-64
2024/04/16 01:21:49;;;;;;;1.60;1.30;;;6.60;98.00;;;;;;5342950;26;20581;-64
2024/04/16 01:24:20;;;;;;;5.10;1.80;;;6.60;98.00;;;;;;5342809;26;21244;-63
2024/04/16 01:26:49;;;;;;;1.80;1.50;;;6.60;98.00;;;;;;5342796;26;20518;-64
2024/04/16 01:29:16;;;;;;;1.60;1.40;;;6.70;98.00;;;;;;5342988;26;20646;-63
2024/04/16 01:31:44;;;;;;;1.50;1.13;;;6.60;98.00;;;;;;5342839;26;20470;-64
2024/04/16 01:34:11;;;;;;;1.93;1.20;;;6.50;98.00;;;;;;5312763;26;20466;-64
2024/04/16 01:36:40;;;;;;;2.30;1.40;;;6.50;98.00;;;;;;5342670;26;20576;-65
2024/04/16 01:39:06;;;;;;;3.43;1.50;;;6.50;98.00;;;;;;5342479;26;20463;-63
2024/04/16 01:41:37;;;;;;;2.53;1.50;;;6.40;98.00;;;;;;5342416;26;20516;-63
2024/04/16 01:44:03;;;;;;;1.70;1.17;;;6.50;98.00;;;;;;5343564;26;20506;-63
2024/04/16 01:46:32;;;;;;;2.90;1.50;;;6.60;98.00;;;;;;5314948;26;20462;-63
2024/04/16 01:48:58;;;;;;;2.30;1.53;;;6.60;98.00;;;;;;5345585;26;21037;-63
2024/04/16 01:51:27;;;;;;;2.13;1.50;;;6.50;98.00;;;;;;5345333;26;20539;-63
2024/04/16 01:53:55;;;;;;;2.30;1.40;;;6.60;98.00;;;;;;5345899;26;20469;-63
2024/04/16 01:56:24;;;;;;;1.50;1.50;;;6.60;98.00;;;;;;5316153;26;20576;-64
2024/04/16 01:58:52;;;;;;;3.17;1.40;;;6.50;98.00;;;;;;5316006;26;20461;-63
2024/04/16 02:01:23;;;;;;;2.57;1.43;;;6.50;98.00;;;;;;5345491;26;20826;-63
2024/04/16 02:03:50;;;;;;;4.33;1.60;;;6.60;98.00;;;;;;5316067;26;20444;-63
2024/04/16 02:06:19;;;;;;;4.00;1.60;;;6.50;98.00;;;;;;5345879;26;20578;-63
2024/04/16 02:08:45;;;;;;;3.47;1.70;;;6.40;98.00;;;;;;5345962;26;20474;-62
2024/04/16 02:11:13;;;;;;;4.40;1.60;;;6.50;98.00;;;;;;5345730;26;20472;-63
2024/04/16 02:13:39;;;;;;;2.17;1.60;;;6.50;98.00;;;;;;5315733;26;20470;-64
2024/04/16 02:16:11;;;;;;;3.00;1.53;;;6.60;98.00;;;;;;5345092;26;20465;-64
2024/04/16 02:18:37;;;;;;;4.13;1.40;;;6.60;98.00;;;;;;5345059;26;20467;-62
2024/04/16 02:21:06;;;;;;;2.20;1.47;;;6.70;98.00;;;;;;5345562;26;20459;-64
2024/04/16 02:23:33;;;;;;;2.03;1.40;;;6.70;98.00;;;;;;5345165;26;20789;-63
2024/04/16 02:26:04;;;;;;;1.67;1.40;;;6.70;98.00;;;;;;5315854;26;20915;-63
2024/04/16 02:28:30;;;;;;;2.40;1.47;;;6.60;98.00;;;;;;5289804;26;20465;-63
2024/04/16 02:30:59;;;;;;;2.53;1.60;;;6.60;98.00;;;;;;5345726;26;20517;-63
2024/04/16 02:33:28;;;;;;;5.77;2.80;;;6.70;98.00;;;;;;5345386;26;20474;-63
2024/04/16 02:36:02;;;;;;;3.70;1.67;;;6.70;98.00;;;;;;5345233;26;20462;-64
2024/04/16 02:38:29;;;;;;;1.83;1.40;;;6.60;98.00;;;;;;5289106;26;21103;-63
2024/04/16 02:40:57;;;;;;;4.10;1.77;;;6.60;98.00;;;;;;5314816;26;20463;-63
2024/04/16 02:43:26;;;;;;;2.70;1.53;;;6.50;98.00;;;;;;5327661;26;20587;-63
2024/04/16 02:45:55;;;;;;;2.30;1.77;;;6.60;98.00;;;;;;5279901;27;20465;-63
2024/04/16 02:48:21;;;;;;;4.77;1.90;;;6.60;98.00;;;;;;5310541;27;20472;-63
2024/04/16 02:50:55;;;;;;;2.70;1.60;;;6.70;98.00;;;;;;5280821;27;20565;-63
2024/04/16 02:53:21;;;;;;;3.20;1.50;;;6.70;98.00;;;;;;5308976;27;20463;-63
2024/04/16 02:55:49;;;;;;;5.70;1.63;;;6.70;98.00;;;;;;5309275;27;20538;-63
2024/04/16 02:58:16;;;;;;;3.20;1.53;;;6.80;98.00;;;;;;5281012;27;20468;-63
2024/04/16 03:00:44;;;;;;;1.67;1.33;;;6.80;98.00;;;;;;5310390;27;20520;-63
2024/04/16 03:03:11;;;;;;;2.30;1.60;;;6.70;98.00;;;;;;5310534;26;20511;-63
2024/04/16 03:05:40;;;;;;;2.10;1.50;;;6.60;98.00;;;;;;5310506;27;20519;-63
2024/04/16 03:08:09;;;;;;;2.20;1.33;;;6.50;98.00;;;;;;5310364;27;20927;-64
2024/04/16 03:10:40;;;;;;;2.90;1.50;;;6.50;98.00;;;;;;5280097;27;20469;-63
2024/04/16 03:13:06;;;;;;;5.73;1.80;;;6.50;98.00;;;;;;5310156;27;20965;-63
2024/04/16 03:15:35;;;;;;;4.37;1.60;;;6.40;98.00;;;;;;5310470;27;20468;-64
2024/04/16 03:18:01;;;;;;;4.83;1.90;;;6.30;98.00;;;;;;5310459;27;20516;-62
2024/04/16 03:20:30;;;;;;;4.47;1.60;;;6.20;98.00;;;;;;5310386;27;20588;-62
2024/04/16 03:22:56;;;;;;;3.50;1.50;;;6.20;98.00;;;;;;5309996;26;20566;-63
2024/04/16 03:25:28;;;;;;;2.00;1.60;;;6.10;98.00;;;;;;5310357;26;21069;-63
2024/04/16 03:27:54;;;;;;;4.33;1.80;;;6.00;98.00;;;;;;5280632;27;20587;-63
2024/04/16 03:30:23;;;;;;;2.80;1.50;;;5.90;98.00;;;;;;5310222;27;20514;-63
2024/04/16 03:32:49;;;;;;;3.40;1.50;;;5.90;98.00;;;;;;5309674;27;20509;-63
2024/04/16 03:35:18;;;;;;;2.40;1.53;;;5.80;98.00;;;;;;5309997;27;20482;-62
2024/04/16 03:37:48;;;;;;;2.33;1.37;;;5.80;98.00;;;;;;5280959;27;20474;-63
2024/04/16 03:40:18;;;;;;;1.90;1.60;;;5.70;98.00;;;;;;5310306;27;20526;-63
2024/04/16 03:42:50;;;;;;;1.80;1.33;;;5.70;98.00;;;;;;5280962;27;20469;-62
2024/04/16 03:45:16;;;;;;;3.40;1.60;;;5.70;98.00;;;;;;5309874;27;20589;-64
2024/04/16 03:47:45;;;;;;;2.30;1.70;;;5.80;98.00;;;;;;5309177;27;20475;-63
2024/04/16 03:50:11;;;;;;;2.57;1.50;;;5.80;98.00;;;;;;5309957;27;20811;-63
2024/04/16 03:52:40;;;;;;;4.30;1.50;;;5.80;98.00;;;;;;5279755;27;20501;-63
2024/04/16 03:55:06;;;;;;;1.43;1.40;;;5.80;98.00;;;;;;5309617;26;20981;-63
2024/04/16 03:57:35;;;;;;;3.10;1.70;;;5.80;98.00;;;;;;5279775;27;20470;-62
2024/04/16 04:02:53;;;;;;;2.57;1.50;;;5.90;98.00;;;;;;5312309;27;20492;-63
2024/04/16 04:05:22;;;;;;;2.77;1.50;;;6.00;98.00;;;;;;5310001;27;21058;-62
2024/04/16 04:07:50;;;;;;;2.13;1.57;;;6.00;98.00;;;;;;5309394;27;20531;-63
2024/04/16 04:10:18;;;;;;;3.37;1.43;;;5.90;98.00;;;;;;5279771;27;20581;-64
2024/04/16 04:12:44;;;;;;;1.87;1.60;;;5.90;98.00;;;;;;5309414;27;20509;-63
2024/04/16 04:15:16;;;;;;;4.43;1.63;;;5.90;98.00;;;;;;5309903;27;20789;-62
2024/04/16 04:17:42;;;;;;;1.90;1.60;;;5.90;98.00;;;;;;5309629;27;21042;-62
2024/04/16 04:20:11;;;;;;;1.90;1.50;;;5.90;98.00;;;;;;5279849;27;20474;-63
2024/04/16 04:22:37;;;;;;;1.83;1.50;;;5.80;98.00;;;;;;5309305;26;20461;-63
2024/04/16 04:25:06;;;;;;;3.13;1.60;;;6.00;98.00;;;;;;5309268;27;21076;-62
2024/04/16 04:27:32;;;;;;;2.93;1.53;;;6.00;98.00;;;;;;5309417;27;20464;-64
2024/04/16 04:30:01;;;;;;;4.47;1.57;;;6.00;98.00;;;;;;5309320;27;20585;-63
2024/04/16 04:32:30;;;;;;;2.13;1.60;;;5.90;98.00;;;;;;5309210;27;20455;-63
2024/04/16 04:34:59;;;;;;;2.83;1.60;;;5.90;98.00;;;;;;5277812;27;20537;-63
2024/04/16 04:37:27;;;;;;;1.50;1.37;;;5.90;98.00;;;;;;5309378;27;20528;-62
2024/04/16 04:39:56;;;;;;;1.50;1.30;;;6.10;98.00;;;;;;5279331;27;20873;-63
2024/04/16 04:42:22;;;;;;;2.23;1.50;;;6.10;98.00;;;;;;5308824;27;20463;-63
2024/04/16 04:44:51;;;;;;;1.90;1.60;;;6.20;98.00;;;;;;5278908;27;20472;-63
2024/04/16 04:47:22;;;;;;;2.17;1.40;;;6.20;98.00;;;;;;5309165;26;20465;-64
2024/04/16 04:49:54;;;;;;;3.83;1.63;;;6.30;98.00;;;;;;5277533;27;21013;-63
2024/04/16 04:52:20;;;;;;;3.67;1.50;;;6.30;98.00;;;;;;5309065;27;20865;-64
2024/04/16 04:54:49;;;;;;;2.30;1.47;;;6.30;98.00;;;;;;5308067;27;20530;-63
2024/04/16 04:57:15;;;;;;;2.60;1.57;;;6.30;98.00;;;;;;5308855;27;20514;-63
2024/04/16 04:59:43;;;;;;;2.40;1.53;;;6.40;98.00;;;;;;5308719;27;20543;-63
2024/04/16 05:02:10;;;;;;;1.47;1.40;;;6.40;98.00;;;;;;5308775;27;20510;-64
2024/04/16 05:04:38;;;;;;;3.30;1.70;;;6.40;98.00;;;;;;5308809;27;20524;-63
2024/04/16 05:07:07;;;;;;;3.63;1.70;;;6.30;98.00;;;;;;5308896;27;20472;-64
2024/04/16 05:09:36;;;;;;;4.70;1.30;;;6.30;98.00;;;;;;5308208;27;20512;-62
2024/04/16 05:12:02;;;;;;;2.00;1.50;;;6.30;98.00;;;;;;5278560;27;20467;-63
2024/04/16 05:14:31;;;;;;;2.23;1.50;;;6.20;98.00;;;;;;5278634;27;20512;-62
2024/04/16 05:16:57;;;;;;;2.27;1.37;;;6.30;98.00;;;;;;5308480;27;20453;-64
2024/04/16 05:19:27;;;;;;;5.93;1.60;;;6.30;98.00;;;;;;5309970;27;20533;-64
2024/04/16 05:21:53;;;;;;;5.03;1.47;;;6.30;98.00;;;;;;5310136;27;20508;-63
2024/04/16 05:24:25;;;;;;;1.60;1.40;;;6.20;98.00;;;;;;5311156;27;20455;-63
2024/04/16 05:26:51;;;;;;;2.07;1.23;;;6.20;98.00;;;;;;5311299;27;21066;-63
2024/04/16 05:29:20;;;;;;;3.00;1.40;;;6.20;98.00;;;;;;5310709;27;20638;-64
2024/04/16 05:31:47;;;;;;;2.13;1.57;;;6.40;98.00;;;;;;5310812;27;20823;-63
2024/04/16 05:34:16;;;;;;;3.10;1.50;;;6.40;98.00;;;;;;5309490;26;21029;-65
2024/04/16 05:36:43;;;;;;;3.07;1.80;;;6.50;98.00;;;;;;5310926;26;20555;-63
2024/04/16 05:39:15;;;;;;;1.80;1.50;;;6.40;98.00;;;;;;5310909;27;20871;-63
2024/04/16 05:41:44;;;;;;;3.53;1.47;;;6.40;98.00;;;;;;5311074;27;20524;-63
2024/04/16 05:44:13;;;;;;;1.63;1.23;;;6.60;98.00;;;;;;5310872;27;20531;-64
2024/04/16 05:46:40;;;;;;;1.83;1.33;;;6.50;98.00;;;;;;5311019;27;20553;-62
2024/04/16 05:49:09;;;;;;;1.80;1.50;;;6.50;98.00;;;;;;5310884;27;20546;-63
2024/04/16 05:51:35;;;;;;;2.00;1.40;;;6.60;98.00;;;;;;5311217;27;20796;-63
2024/04/16 05:54:06;;;;;;;2.10;1.43;;;6.80;98.00;;;;;;5309995;27;20472;-63
2024/04/16 05:56:33;;;;;;;3.10;1.47;;;6.80;98.00;;;;;;5282393;27;20473;-63
2024/04/16 05:59:04;;;;;;;3.50;2.00;;;6.80;98.00;;;;;;5311126;27;20938;-62
2024/04/16 06:01:31;;;;;;;3.50;1.67;;;6.80;98.00;;;;;;5310910;27;20459;-61
2024/04/16 06:04:01;;;;;;;2.97;1.80;;;6.80;98.00;;;;;;5310894;26;20481;-62
2024/04/16 06:06:27;;;;;;;3.90;1.70;;;6.70;98.00;;;;;;5281984;27;20517;-64
2024/04/16 06:08:56;;;;;;;4.40;1.70;;;6.80;98.00;;;;;;5311302;27;20543;-65
2024/04/16 06:11:22;;;;;;;2.47;1.47;;;6.80;98.00;;;;;;5311069;26;20500;-62
2024/04/16 06:13:51;;;;;;;4.30;2.20;;;6.90;98.00;;;;;;5310970;26;20524;-62
2024/04/16 06:16:20;;;;;;;3.47;1.77;;;7.00;98.00;;;;;;5311160;27;20559;-62
2024/04/16 06:18:48;;;;;;;3.20;1.60;;;7.10;98.00;;;;;;5311969;27;21055;-63
2024/04/16 06:21:14;;;;;;;3.90;1.80;;;7.10;98.00;;;;;;5311971;27;20470;-63
2024/04/16 06:23:45;;;;;;;2.57;1.50;;;7.10;98.00;;;;;;5311835;27;20465;-63
2024/04/16 06:26:11;;;;;;;1.90;1.53;;;7.00;98.00;;;;;;5311948;27;21224;-62
2024/04/16 06:28:40;;;;;;;4.20;1.63;;;7.10;98.00;;;;;;5311636;26;20480;-63
2024/04/16 06:31:06;;;;;;;4.33;1.73;;;7.10;98.00;;;;;;5310260;27;20461;-65
2024/04/16 06:33:38;;;;;;;4.70;1.50;;;7.20;98.00;;;;;;5310837;26;20466;-64
2024/04/16 06:36:05;;;;;;;3.27;1.80;;;7.20;98.00;;;;;;5311651;27;20508;-64
2024/04/16 06:38:34;;;;;;;7.30;2.10;;;7.30;98.00;;;;;;5311715;27;20533;-62
2024/04/16 06:41:02;;;;;;;3.60;1.70;;;7.40;98.00;;;;;;5311634;27;20466;-62
2024/04/16 06:43:31;;;;;;;2.27;1.80;;;7.50;98.00;;;;;;5281816;27;20512;-63
2024/04/16 06:45:57;;;;;;;6.43;2.13;;;7.60;98.00;;;;;;5311492;27;20459;-63
2024/04/16 06:48:26;;;;;;;4.40;1.80;;;7.60;98.00;;;;;;5311925;27;20463;-63
2024/04/16 06:50:55;;;;;;;3.23;2.03;;;7.70;98.00;;;;;;5311432;27;20475;-62
2024/04/16 06:53:24;;;;;;;5.70;1.90;;;7.70;98.00;;;;;;5311333;27;20470;-63
2024/04/16 06:55:58;;;;;;;3.80;1.87;;;7.70;98.00;;;;;;5311357;26;21040;-62
2024/04/16 06:58:27;;;;;;;3.73;1.80;;;7.70;98.00;;;;;;5311371;27;20465;-63
2024/04/16 07:00:54;;;;;;;3.10;1.73;;;7.70;98.00;;;;;;5254421;27;20466;-64
2024/04/16 07:03:23;;;;;;;4.40;1.60;;;7.80;98.00;;;;;;5311209;27;20466;-63
2024/04/16 07:05:50;;;;;;;3.00;2.03;;;7.90;98.00;;;;;;5311581;27;20565;-63
2024/04/16 07:08:22;;;;;;;6.40;2.30;;;8.10;98.00;;;;;;5311249;27;20470;-63
2024/04/16 07:10:48;;;;;;;3.87;1.80;;;8.30;98.00;;;;;;5311464;27;20901;-64
2024/04/16 07:13:18;;;;;;;3.73;1.90;;;8.30;98.00;;;;;;5311010;27;20478;-62
2024/04/16 07:15:48;;;;;;;7.07;1.87;;;8.30;98.00;;;;;;5311562;27;20839;-63
2024/04/16 07:18:14;;;;;;;6.10;2.03;;;8.50;98.00;;;;;;5281736;27;21117;-63
2024/04/16 07:20:49;;;;;;;1.83;1.70;;;8.50;98.00;;;;;;5343047;26;20470;-62
2024/04/16 07:23:18;;;;;;;3.30;1.63;;;8.50;98.00;;;;;;5345393;26;20512;-60
2024/04/16 07:25:47;;;;;;;3.23;1.77;;;8.50;98.00;;;;;;5345322;26;20466;-61
2024/04/16 07:28:13;;;;;;;4.93;2.00;;;8.50;98.00;;;;;;5345203;26;20937;-61
2024/04/16 07:30:44;;;;;;;4.07;1.90;;;8.40;98.00;;;;;;5345529;26;20457;-60
2024/04/16 07:33:10;;;;;;;5.50;1.83;;;8.30;98.00;;;;;;5315350;26;20862;-59
2024/04/16 07:35:40;;;;;;;3.33;1.77;;;8.30;98.00;;;;;;5345440;26;20465;-59
2024/04/16 07:38:06;;;;;;;3.90;1.97;;;8.40;98.00;;;;;;5345152;26;20540;-61
2024/04/16 07:40:37;;;;;;;3.83;1.80;;;8.50;98.00;;;;;;5344279;26;20478;-60
2024/04/16 07:43:05;;;;;;;2.53;1.63;;;8.60;98.00;;;;;;5344501;26;20503;-61
2024/04/16 07:45:33;;;;;;;11.90;2.10;;;8.70;98.00;;;;;;5345018;26;20520;-57
2024/04/16 07:48:01;;;;;;;1.70;1.50;;;8.80;98.00;;;;;;5345272;26;20456;-60
2024/04/16 07:50:30;;;;;;;2.93;1.50;;;8.90;98.00;;;;;;5345178;26;20516;-60
2024/04/16 07:52:56;;;;;;;3.50;1.87;;;9.10;98.00;;;;;;5345380;26;20801;-61
2024/04/16 07:55:25;;;;;;;3.43;1.40;;;9.20;98.00;;;;;;5314542;26;20454;-59
2024/04/16 07:57:55;;;;;;;2.20;1.57;;;9.20;98.00;;;;;;5345669;26;20515;-58
2024/04/16 08:00:28;;;;;;;5.30;1.97;;;9.40;98.00;;;;;;5345421;26;20477;-57
2024/04/16 08:02:54;;;;;;;2.87;1.53;;;9.40;98.00;;;;;;5344346;26;20479;-61
2024/04/16 08:05:24;;;;;;;1.70;1.43;;;9.40;98.00;;;;;;5331770;26;20535;-59
2024/04/16 08:07:50;;;;;;;3.23;1.70;;;9.50;98.00;;;;;;5281067;27;20451;-56
2024/04/16 08:10:20;;;;;;;3.10;1.60;;;9.50;98.00;;;;;;5310375;27;20784;-59
2024/04/16 08:12:46;;;;;;;2.20;1.60;;;9.60;98.00;;;;;;5280240;27;20513;-55
2024/04/16 08:15:18;;;;;;;6.83;2.03;;;9.70;98.00;;;;;;5310184;26;20574;-58
2024/04/16 08:17:44;;;;;;;2.03;1.53;;;9.70;98.00;;;;;;5281023;27;20536;-55
2024/04/16 08:20:14;;;;;;;2.77;1.47;;;9.80;98.00;;;;;;5310172;27;20501;-57
2024/04/16 08:22:41;;;;;;;5.57;1.40;;;9.90;98.00;;;;;;5310357;26;20999;-55
2024/04/16 08:25:11;;;;;;;4.13;1.60;;;10.20;98.00;;;;;;5308747;27;20511;-53
2024/04/16 08:27:38;;;;;;;5.00;1.50;;;10.20;98.00;;;;;;5306295;27;21050;-56
2024/04/16 08:30:08;;;;;;;5.37;1.50;;;10.20;98.00;;;;;;5310234;27;20912;-56
2024/04/16 08:32:37;;;;;;;1.70;1.43;;;10.20;98.00;;;;;;5309859;27;20455;-56
2024/04/16 08:35:06;;;;;;;7.23;1.80;;;10.20;98.00;;;;;;5310122;27;20477;-56
2024/04/16 08:37:32;;;;;;;3.20;1.80;;;10.00;98.00;;;;;;5310271;27;20971;-55
2024/04/16 08:40:01;;;;;;;4.10;1.60;;;10.00;98.00;;;;;;5310081;27;20465;-53
2024/04/16 08:42:27;;;;;;;3.43;1.70;;;10.00;98.00;;;;;;5309926;27;20473;-58
2024/04/16 08:44:59;;;;;;;3.37;1.50;;;10.10;98.00;;;;;;5309014;27;20872;-54
2024/04/16 08:47:26;;;;;;;2.57;1.70;;;10.10;98.00;;;;;;5308641;27;20467;-57
2024/04/16 08:49:58;;;;;;;5.70;1.90;;;10.20;98.00;;;;;;5279374;27;20467;-55
2024/04/16 08:52:26;;;;;;;1.93;1.37;;;10.20;98.00;;;;;;5309356;27;20473;-56
2024/04/16 08:54:55;;;;;;;3.10;1.70;;;10.20;98.00;;;;;;5308304;27;20551;-51
2024/04/16 08:57:22;;;;;;;3.23;1.67;;;10.30;98.00;;;;;;5308847;26;20781;-52
2024/04/16 08:59:50;;;;;;;3.80;1.60;;;10.30;98.00;;;;;;5309699;27;20473;-53
2024/04/16 09:02:18;;;;;;;2.70;1.53;;;10.20;98.00;;;;;;5309346;27;20465;-56
2024/04/16 09:04:47;;;;;;;5.43;2.00;;;10.30;98.00;;;;;;5309395;27;20470;-56
2024/04/16 09:07:17;;;;;;;3.97;1.80;;;10.40;98.00;;;;;;5309618;26;20457;-58
2024/04/16 09:09:46;;;;;;;3.90;1.70;;;10.40;98.00;;;;;;5308394;27;20557;-58
2024/04/16 09:12:12;;;;;;;3.60;1.63;;;10.50;98.00;;;;;;5309310;27;20503;-58
2024/04/16 09:14:41;;;;;;;2.40;1.70;;;10.40;98.00;;;;;;5309617;26;20534;-56
2024/04/16 09:17:13;;;;;;;1.73;1.40;;;10.30;98.00;;;;;;5309355;27;20455;-57
2024/04/16 09:19:41;;;;;;;2.50;1.40;;;10.40;98.00;;;;;;5309652;27;20519;-57
2024/04/16 09:22:09;;;;;;;3.57;1.43;;;10.40;98.00;;;;;;5309693;27;20470;-57
2024/04/16 09:24:40;;;;;;;4.50;1.77;;;10.60;98.00;;;;;;5309361;27;20523;-54
2024/04/16 09:27:08;;;;;;;2.93;1.43;;;10.70;98.00;;;;;;5309496;27;21041;-56
2024/04/16 09:29:37;;;;;;;4.00;1.40;;;10.80;98.00;;;;;;5309674;27;20533;-54
2024/04/16 09:32:04;;;;;;;3.83;1.50;;;10.90;98.00;;;;;;5309587;27;20467;-52
2024/04/16 09:34:34;;;;;;;4.23;1.77;;;10.90;98.00;;;;;;5308716;26;20930;-56
2024/04/16 09:37:01;;;;;;;4.60;1.70;;;11.00;98.00;;;;;;5309400;27;21059;-55
2024/04/16 09:39:30;;;;;;;2.17;1.30;;;10.80;98.00;;;;;;5309249;27;20466;-52
2024/04/16 09:41:59;;;;;;;3.87;1.73;;;10.80;98.00;;;;;;5309479;27;20508;-56
2024/04/16 09:44:30;;;;;;;1.63;1.30;;;11.10;98.00;;;;;;5309406;27;20529;-56
2024/04/16 09:46:58;;;;;;;5.53;1.90;;;11.20;98.00;;;;;;5309652;27;20470;-58
2024/04/16 09:49:28;;;;;;;4.60;1.50;;;11.30;98.00;;;;;;5308967;27;20523;-53
2024/04/16 09:51:55;;;;;;;3.63;1.80;;;11.30;98.00;;;;;;5308346;27;21357;-54
2024/04/16 09:54:26;;;;;;;4.70;1.40;;;11.20;98.00;;;;;;5308647;27;20520;-52
2024/04/16 09:56:53;;;;;;;1.67;1.30;;;11.10;98.00;;;;;;5308928;27;20463;-56
2024/04/16 09:59:29;;;;;;;3.23;1.47;;;11.30;98.00;;;;;;5278504;27;20933;-55
2024/04/16 10:01:57;;;;;;;2.17;1.50;;;11.70;98.00;;;;;;5308183;27;20799;-55
2024/04/16 10:04:27;;;;;;;3.00;1.50;;;11.70;98.00;;;;;;5308321;27;20526;-56
2024/04/16 10:06:53;;;;;;;3.53;1.40;;;11.60;98.00;;;;;;5310531;27;20473;-55
2024/04/16 10:09:22;;;;;;;5.20;1.40;;;11.50;98.00;;;;;;5310195;27;20592;-56
2024/04/16 10:11:49;;;;;;;2.40;1.60;;;11.50;98.00;;;;;;5311675;27;20468;-56
2024/04/16 10:14:18;;;;;;;3.47;1.57;;;11.30;98.00;;;;;;5311692;27;20518;-54
2024/04/16 10:16:47;;;;;;;3.00;1.40;;;11.10;98.00;;;;;;5312129;27;20465;-55
2024/04/16 10:21:47;;;;;;;1.97;1.50;;;10.60;98.00;;;;;;5597658;21;20490;-65
2024/04/16 10:24:19;;;;;;;4.40;1.50;;;10.60;98.00;;;;;;5415972;26;20967;-65
2024/04/16 10:26:50;;;;;;;3.27;1.70;;;10.50;98.00;;;;;;5416361;26;20471;-65
2024/04/16 10:29:17;;;;;;;1.63;1.30;;;10.50;98.00;;;;;;5416413;26;20459;-64
2024/04/16 10:31:51;;;;;;;4.40;1.67;;;10.60;98.00;;;;;;5414421;26;20474;-65
2024/04/16 10:34:21;;;;;;;3.33;1.80;;;10.60;98.00;;;;;;5415856;26;20466;-65
2024/04/16 10:36:50;;;;;;;2.70;1.40;;;10.70;98.00;;;;;;5416178;26;20982;-65
2024/04/16 10:39:16;;;;;;;3.77;1.73;;;10.70;98.00;;;;;;5416055;26;20506;-65
2024/04/16 10:41:56;;;;;;;7.03;1.50;;;10.60;98.00;;;;;;5416607;26;20511;-65
2024/04/16 10:44:23;;;;;;;2.73;1.60;;;10.60;98.00;;;;;;5416288;26;20468;-65
2024/04/16 10:46:56;;;;;;;3.10;1.50;;;10.40;98.00;;;;;;5416090;26;20616;-64
2024/04/16 10:49:22;;;;;;;3.53;1.50;;;10.40;98.00;;;;;;5416159;26;20515;-65
2024/04/16 10:51:52;;;;;;;4.60;1.30;;;10.20;98.00;;;;;;5416239;26;20563;-65
2024/04/16 10:54:19;;;;;;;2.53;1.30;;;10.00;98.00;;;;;;5414482;26;20460;-65
2024/04/16 10:56:51;;;;;;;2.50;1.40;;;9.90;98.00;;;;;;5416373;26;20804;-65
2024/04/16 10:59:18;;;;;;;2.57;1.70;;;9.80;98.00;;;;;;5416207;26;20978;-65
2024/04/16 11:01:49;;;;;;;2.23;1.30;;;9.80;98.00;;;;;;5416083;26;20463;-64
2024/04/16 11:04:18;;;;;;;2.77;1.40;;;10.00;98.00;;;;;;5416044;26;20466;-65
2024/04/16 11:06:48;;;;;;;2.67;1.43;;;10.10;98.00;;;;;;5415945;26;20614;-65
2024/04/16 11:09:15;;;;;;;1.57;1.20;;;10.20;98.00;;;;;;5416275;26;20455;-65
2024/04/16 11:11:45;;;;;;;2.97;1.27;;;10.40;98.00;;;;;;5416044;26;20471;-65
2024/04/16 11:14:13;;;;;;;1.80;1.30;;;10.50;98.00;;;;;;5415885;26;20462;-65
2024/04/16 11:16:43;;;;;;;1.83;1.20;;;10.50;98.00;;;;;;5415319;26;20520;-64
2024/04/16 11:19:10;;;;;;;3.10;1.43;;;10.60;98.00;;;;;;5416169;26;20500;-65
2024/04/16 11:21:41;;;;;;;2.37;1.30;;;10.70;98.00;;;;;;5416084;26;20470;-64
2024/04/16 11:24:08;;;;;;;6.60;1.60;;;10.90;98.00;;;;;;5416210;26;20462;-65
2024/04/16 11:26:39;;;;;;;1.50;1.23;;;11.00;98.00;;;;;;5415800;26;20470;-66
2024/04/16 11:29:05;;;;;;;1.67;1.37;;;11.10;98.00;;;;;;5415844;26;20458;-66
2024/04/16 11:31:33;;;;;;;1.77;1.30;;;10.90;98.00;;;;;;5415823;26;20465;-66
2024/04/16 11:34:07;;;;;;;1.50;1.30;;;10.80;98.00;;;;;;5416033;26;20450;-66
2024/04/16 11:36:36;;;;;;;6.03;1.70;;;10.70;98.00;;;;;;5416226;26;20470;-66
2024/04/16 11:39:05;;;;;;;2.53;1.53;;;10.70;98.00;;;;;;5415943;26;20866;-67
2024/04/16 11:41:35;;;;;;;5.47;1.67;;;10.70;98.00;;;;;;5415486;26;20459;-66
2024/04/16 11:44:03;;;;;;;2.40;1.40;;;10.60;98.00;;;;;;5415442;26;20468;-66
2024/04/16 11:46:32;;;;;;;5.47;1.20;;;10.70;98.00;;;;;;5415379;26;20468;-66
2024/04/16 11:48:58;;;;;;;1.60;1.20;;;10.60;98.00;;;;;;5415387;26;20459;-67
2024/04/16 11:51:26;;;;;;;1.40;1.20;;;10.70;98.00;;;;;;5415483;26;20992;-66
2024/04/16 11:53:52;;;;;;;5.27;1.43;;;10.60;98.00;;;;;;5415040;26;20465;-67
2024/04/16 11:56:24;;;;;;;5.00;1.30;;;10.50;98.00;;;;;;5415216;26;20538;-66
2024/04/16 11:58:50;;;;;;;2.47;1.20;;;10.50;98.00;;;;;;5415114;26;20451;-66
2024/04/16 12:01:19;;;;;;;2.20;1.50;;;10.50;98.00;;;;;;5414928;26;20513;-66
2024/04/16 12:03:45;;;;;;;2.47;1.27;;;10.50;98.00;;;;;;5415489;26;20567;-67
2024/04/16 12:06:14;;;;;;;1.20;1.20;;;10.50;98.00;;;;;;5415513;26;20978;-66
2024/04/16 12:08:40;;;;;;;2.77;1.53;;;10.50;98.00;;;;;;5415462;26;20511;-66
2024/04/16 12:11:09;;;;;;;5.33;1.50;;;10.60;98.00;;;;;;5413846;26;20530;-67
2024/04/16 12:13:37;;;;;;;2.40;1.40;;;10.60;98.00;;;;;;5415361;26;20568;-66
2024/04/16 12:16:07;;;;;;;1.43;1.30;;;10.60;98.00;;;;;;5408200;26;20530;-65
2024/04/16 12:18:33;;;;;;;1.70;1.30;;;10.50;98.00;;;;;;5379407;26;20456;-65
2024/04/16 12:21:02;;;;;;;2.10;1.40;;;10.40;98.00;;;;;;5379384;26;20549;-66
2024/04/16 12:23:28;;;;;;;5.57;1.50;;;10.50;98.00;;;;;;5380489;26;20484;-66
2024/04/16 12:25:57;;;;;;;1.93;1.30;;;10.40;98.00;;;;;;5378767;26;20509;-66
2024/04/16 12:28:25;;;;;;;2.33;1.50;;;10.40;98.00;;;;;;5376499;26;20839;-66
2024/04/16 12:30:56;;;;;;;1.53;1.33;;;10.30;98.00;;;;;;5377793;26;20509;-64
2024/04/16 12:33:22;;;;;;;2.60;1.30;;;10.20;98.00;;;;;;5377499;26;20514;-64
2024/04/16 12:35:51;;;;;;;1.40;1.20;;;10.30;98.00;;;;;;5379638;26;20785;-64
2024/04/16 12:38:17;;;;;;;1.57;1.27;;;10.40;98.00;;;;;;5379584;26;20973;-65
2024/04/16 12:40:50;;;;;;;1.83;1.30;;;10.40;98.00;;;;;;5379433;26;20523;-64
2024/04/16 12:43:18;;;;;;;1.43;1.27;;;10.60;98.00;;;;;;5379858;26;20517;-63
2024/04/16 12:45:47;;;;;;;1.93;1.17;;;10.70;98.00;;;;;;5379399;26;20549;-65
2024/04/16 12:48:18;;;;;;;2.90;1.30;;;10.70;98.00;;;;;;5377791;26;20460;-65
2024/04/16 12:50:48;;;;;;;1.77;1.27;;;10.60;98.00;;;;;;5379622;26;20464;-64
2024/04/16 12:53:15;;;;;;;1.83;1.20;;;10.60;98.00;;;;;;5379429;26;20798;-64
2024/04/16 12:55:44;;;;;;;5.83;1.43;;;10.60;98.00;;;;;;5377870;26;21041;-65
2024/04/16 12:58:10;;;;;;;1.50;1.23;;;10.60;98.00;;;;;;5379917;26;20608;-65
2024/04/16 13:00:39;;;;;;;1.53;1.20;;;10.70;98.00;;;;;;5378657;26;20508;-65
2024/04/16 13:03:06;;;;;;;1.97;1.50;;;10.80;98.00;;;;;;5379114;26;20567;-64